Time;durP1;ratioP1;P1;durP2;ratioP2;P2;SDS_P1;SDS_P2;PMS_P1;PMS_P2;Temp;Humidity;BMP_temperature;BMP_pressure;BME280_temperature;BME280_humidity;BME280_pressure;Samples;Min_cycle;Max_cycle;Signal;HPM_P1;HPM_P2
2022/11/28 00:02:12;;;;;;;;;;;6.30;99.90;;;;;;5097061;27;20375;-66
2022/11/28 00:04:37;;;;;;;;;;;6.30;99.90;;;;;;5098592;27;19973;-66
2022/11/28 00:07:03;;;;;;;;;;;6.30;99.90;;;;;;5093718;27;20344;-67
2022/11/28 00:09:28;;;;;;;;;;;6.30;99.90;;;;;;5095341;27;19923;-67
2022/11/28 00:11:54;;;;;;;;;;;6.30;99.90;;;;;;5090687;27;20285;-66
2022/11/28 00:14:20;;;;;;;;;;;6.20;99.90;;;;;;5081088;28;20030;-66
2022/11/28 00:16:45;;;;;;;;;;;6.30;99.90;;;;;;5080950;28;19974;-66
2022/11/28 00:19:12;;;;;;;;;;;6.30;99.90;;;;;;5092223;27;19920;-66
2022/11/28 00:21:38;;;;;;;;;;;6.30;99.90;;;;;;5126359;27;20321;-66
2022/11/28 00:24:03;;;;;;;;;;;6.20;99.90;;;;;;5099096;28;19924;-66
2022/11/28 00:26:32;;;;;;;;;;;6.30;99.90;;;;;;5110864;27;19928;-65
2022/11/28 00:28:58;;;;;;;;;;;6.20;99.90;;;;;;5098764;27;20046;-66
2022/11/28 00:31:25;;;;;;;;;;;6.20;99.90;;;;;;5098648;27;19928;-67
2022/11/28 00:33:51;;;;;;;;;;;6.20;99.90;;;;;;5097484;27;19950;-66
2022/11/28 00:36:17;;;;;;;;;;;6.20;99.90;;;;;;5091373;27;20012;-66
2022/11/28 00:38:42;;;;;;;;;;;6.30;99.90;;;;;;5101243;28;19967;-66
2022/11/28 00:41:12;;;;;;;;;;;6.30;99.90;;;;;;5096368;27;19999;-65
2022/11/28 00:43:39;;;;;;;;;;;6.30;99.90;;;;;;5098746;27;19928;-66
2022/11/28 00:46:05;;;;;;;;;;;6.40;99.90;;;;;;5091414;27;20201;-66
2022/11/28 00:48:31;;;;;;;;;;;6.30;99.90;;;;;;5096358;28;19928;-66
2022/11/28 00:51:03;;;;;;;;;;;6.20;99.90;;;;;;5091430;28;19920;-66
2022/11/28 00:53:29;;;;;;;;;;;6.30;99.90;;;;;;5091611;28;19963;-66
2022/11/28 00:55:54;;;;;;;;;;;6.40;99.90;;;;;;5093011;28;19920;-66
2022/11/28 00:58:20;;;;;;;;;;;6.30;99.90;;;;;;5094210;27;20404;-66
2022/11/28 01:00:45;;;;;;;;;;;6.40;99.90;;;;;;5088665;27;19923;-67
2022/11/28 01:03:11;;;;;;;;;;;6.30;99.90;;;;;;5088898;27;20018;-67
2022/11/28 01:05:40;;;;;;;;;;;6.30;99.90;;;;;;5096008;27;19924;-66
2022/11/28 01:08:06;;;;;;;;;;;6.40;99.90;;;;;;5096772;28;20432;-67
2022/11/28 01:10:31;;;;;;;;;;;6.40;99.90;;;;;;5097713;27;19924;-66
2022/11/28 01:12:57;;;;;;;;;;;6.40;99.90;;;;;;5096374;27;19920;-67
2022/11/28 01:15:22;;;;;;;;;;;6.40;99.90;;;;;;5099088;27;19966;-67
2022/11/28 01:17:48;;;;;;;;;;;6.30;99.90;;;;;;5091461;27;19973;-67
2022/11/28 01:20:13;;;;;;;;;;;6.40;99.90;;;;;;5126518;27;19930;-67
2022/11/28 01:22:39;;;;;;;;;;;6.40;99.90;;;;;;5092036;27;19927;-67
2022/11/28 01:25:05;;;;;;;;;;;6.40;99.90;;;;;;5111377;27;20002;-67
2022/11/28 01:27:30;;;;;;;;;;;6.50;99.90;;;;;;5092824;28;20401;-65
2022/11/28 01:29:55;;;;;;;;;;;6.40;99.90;;;;;;5095208;27;20021;-70
2022/11/28 01:32:21;;;;;;;;;;;6.40;99.90;;;;;;5100501;27;19927;-66
2022/11/28 01:34:46;;;;;;;;;;;6.50;99.90;;;;;;5093701;27;20267;-66
2022/11/28 01:37:12;;;;;;;;;;;6.40;99.90;;;;;;5095133;27;20010;-66
2022/11/28 01:39:37;;;;;;;;;;;6.40;99.90;;;;;;5100416;27;20291;-67
2022/11/28 01:42:03;;;;;;;;;;;6.50;99.90;;;;;;5098494;27;19924;-66
2022/11/28 01:44:28;;;;;;;;;;;6.40;99.90;;;;;;5091541;27;19927;-66
2022/11/28 01:46:54;;;;;;;;;;;6.40;99.90;;;;;;5092986;27;20441;-67
2022/11/28 01:49:25;;;;;;;;;;;6.50;99.90;;;;;;5089396;28;19924;-66
2022/11/28 01:51:53;;;;;;;;;;;6.50;99.90;;;;;;5123630;27;19930;-66
2022/11/28 01:54:21;;;;;;;;;;;6.50;99.90;;;;;;5091571;27;19931;-67
2022/11/28 01:56:50;;;;;;;;;;;6.50;99.90;;;;;;5095352;27;19931;-66
2022/11/28 01:59:16;;;;;;;;;;;6.50;99.90;;;;;;5094416;27;19927;-66
2022/11/28 02:01:42;;;;;;;;;;;6.60;99.90;;;;;;5127323;27;19928;-67
2022/11/28 02:04:08;;;;;;;;;;;6.50;99.90;;;;;;5128969;27;19931;-66
2022/11/28 02:06:34;;;;;;;;;;;6.60;99.90;;;;;;5125529;27;19928;-66
2022/11/28 02:08:59;;;;;;;;;;;6.60;99.90;;;;;;5094475;27;19935;-67
2022/11/28 02:11:31;;;;;;;;;;;6.60;99.90;;;;;;5072546;28;20018;-67
2022/11/28 02:14:15;;;;;;;;;;;6.60;99.90;;;;;;5074313;28;20026;-70
2022/11/28 02:16:46;;;;;;;;;;;6.70;99.90;;;;;;5073418;28;19963;-67
2022/11/28 02:19:15;;;;;;;;;;;6.60;99.90;;;;;;5079830;28;19920;-68
2022/11/28 02:21:40;;;;;;;;;;;6.50;99.90;;;;;;5073992;28;19924;-66
2022/11/28 02:24:35;;;;;;;;;;;6.60;99.90;;;;;;5076582;28;19919;-69
2022/11/28 02:27:12;;;;;;;;;;;6.70;99.90;;;;;;5004930;28;19936;-66
2022/11/28 02:30:00;;;;;;;;;;;6.60;99.90;;;;;;5068243;28;20018;-66
2022/11/28 02:32:35;;;;;;;;;;;6.60;99.90;;;;;;5078560;28;20010;-66
2022/11/28 02:35:07;;;;;;;;;;;6.60;99.90;;;;;;5068405;28;20298;-67
2022/11/28 02:37:35;;;;;;;;;;;6.70;99.90;;;;;;5078379;28;19919;-70
2022/11/28 02:40:01;;;;;;;;;;;6.70;99.90;;;;;;5074112;28;20116;-65
2022/11/28 02:42:26;;;;;;;;;;;6.70;99.90;;;;;;5112004;27;20014;-67
2022/11/28 02:45:10;;;;;;;;;;;6.80;99.90;;;;;;5077927;28;19919;-68
2022/11/28 02:47:37;;;;;;;;;;;6.80;99.90;;;;;;5076225;28;19963;-68
2022/11/28 02:50:08;;;;;;;;;;;6.80;99.90;;;;;;5061538;28;19997;-67
2022/11/28 02:52:45;;;;;;;;;;;6.90;99.90;;;;;;5108043;27;19920;-66
2022/11/28 02:55:12;;;;;;;;;;;6.70;99.90;;;;;;5106338;27;19923;-66
2022/11/28 02:57:45;;;;;;;;;;;6.70;99.90;;;;;;5076076;28;19924;-66
2022/11/28 03:00:26;;;;;;;;;;;6.80;99.90;;;;;;5078102;28;19928;-67
2022/11/28 03:03:10;;;;;;;;;;;6.80;99.90;;;;;;5073645;27;19920;-66
2022/11/28 03:05:51;;;;;;;;;;;6.90;99.90;;;;;;5079939;28;19942;-66
2022/11/28 03:08:27;;;;;;;;;;;6.90;99.90;;;;;;5076602;28;20005;-67
2022/11/28 03:10:55;;;;;;;;;;;6.90;99.90;;;;;;5130381;27;19980;-66
2022/11/28 03:13:26;;;;;;;;;;;7.00;99.90;;;;;;5095317;28;19924;-67
2022/11/28 03:16:10;;;;;;;;;;;7.00;99.90;;;;;;5095864;28;20010;-67
2022/11/28 03:18:40;;;;;;;;;;;7.00;99.90;;;;;;5092993;28;19924;-69
2022/11/28 03:21:06;;;;;;;;;;;6.90;99.90;;;;;;5074453;28;19950;-65
2022/11/28 03:23:35;;;;;;;;;;;7.10;99.90;;;;;;5092827;28;19920;-71
2022/11/28 03:26:06;;;;;;;;;;;7.00;99.90;;;;;;5088328;28;20027;-66
2022/11/28 03:28:32;;;;;;;;;;;7.00;99.90;;;;;;5092410;28;20259;-66
2022/11/28 03:30:57;;;;;;;;;;;7.10;99.90;;;;;;5089055;28;19981;-66
2022/11/28 03:33:24;;;;;;;;;;;7.00;99.90;;;;;;5091904;28;20381;-66
2022/11/28 03:35:56;;;;;;;;;;;7.00;99.90;;;;;;5127385;27;20358;-67
2022/11/28 03:38:26;;;;;;;;;;;7.10;99.90;;;;;;5095479;28;19924;-68
2022/11/28 03:40:54;;;;;;;;;;;7.10;99.90;;;;;;5087516;28;19920;-66
2022/11/28 03:43:23;;;;;;;;;;;7.10;99.90;;;;;;5092028;28;20059;-68
2022/11/28 03:45:54;;;;;;;;;;;7.10;99.90;;;;;;5092770;28;19974;-66
2022/11/28 03:48:31;;;;;;;;;;;7.10;99.90;;;;;;5130371;27;19927;-65
2022/11/28 03:51:17;;;;;;;;;;;7.20;99.90;;;;;;5091953;28;19931;-67
2022/11/28 03:54:01;;;;;;;;;;;7.20;99.90;;;;;;5097441;28;19920;-67
2022/11/28 03:56:45;;;;;;;;;;;7.10;99.90;;;;;;5096151;28;19981;-66
2022/11/28 03:59:23;;;;;;;;;;;7.10;99.90;;;;;;5093983;28;19924;-67
2022/11/28 04:02:00;;;;;;;;;;;7.20;99.90;;;;;;5123922;27;20367;-68
2022/11/28 04:04:32;;;;;;;;;;;7.10;99.90;;;;;;5105837;27;19966;-66
2022/11/28 04:07:09;;;;;;;;;;;7.10;99.90;;;;;;5092334;28;19932;-67
2022/11/28 04:09:41;;;;;;;;;;;7.10;99.90;;;;;;5095235;28;19923;-67
2022/11/28 04:12:09;;;;;;;;;;;7.20;99.90;;;;;;5124647;27;19930;-68
2022/11/28 04:14:40;;;;;;;;;;;7.20;99.90;;;;;;5097491;28;20298;-66
2022/11/28 04:17:12;;;;;;;;;;;7.30;99.90;;;;;;5123616;27;19928;-67
2022/11/28 04:19:43;;;;;;;;;;;7.20;99.90;;;;;;5130799;27;19920;-65
2022/11/28 04:22:26;;;;;;;;;;;7.20;99.90;;;;;;5085901;28;20408;-68
2022/11/28 04:25:00;;;;;;;;;;;7.20;99.90;;;;;;5101203;27;19934;-68
2022/11/28 04:27:27;;;;;;;;;;;7.30;99.90;;;;;;5097365;27;19967;-68
2022/11/28 04:29:55;;;;;;;;;;;7.30;99.90;;;;;;5092265;27;19934;-67
2022/11/28 04:32:22;;;;;;;;;;;7.40;99.90;;;;;;5098379;27;19967;-65
2022/11/28 04:34:51;;;;;;;;;;;7.30;99.90;;;;;;5096980;27;19920;-69
2022/11/28 04:37:16;;;;;;;;;;;7.30;99.90;;;;;;5094237;27;19974;-67
2022/11/28 04:39:44;;;;;;;;;;;7.40;99.90;;;;;;5095252;27;19928;-68
2022/11/28 04:42:12;;;;;;;;;;;7.30;99.90;;;;;;5094883;27;19932;-67
2022/11/28 04:44:53;;;;;;;;;;;7.30;99.90;;;;;;5097917;27;20301;-67
2022/11/28 04:47:18;;;;;;;;;;;7.30;99.90;;;;;;5094541;28;20297;-67
2022/11/28 04:49:44;;;;;;;;;;;7.30;99.90;;;;;;5095255;27;19920;-68
2022/11/28 04:52:28;;;;;;;;;;;7.50;99.90;;;;;;5094409;27;20335;-66
2022/11/28 04:55:00;;;;;;;;;;;7.40;99.90;;;;;;5098786;27;19927;-68
2022/11/28 04:57:28;;;;;;;;;;;7.40;99.90;;;;;;5097290;28;20379;-67
2022/11/28 04:59:55;;;;;;;;;;;7.50;99.90;;;;;;5076704;28;19924;-66
2022/11/28 05:02:21;;;;;;;;;;;7.40;99.90;;;;;;5093603;27;19934;-67
2022/11/28 05:04:47;;;;;;;;;;;7.50;99.90;;;;;;5130684;27;19920;-68
2022/11/28 05:07:12;;;;;;;;;;;7.50;99.90;;;;;;5093019;27;19931;-67
2022/11/28 05:09:37;;;;;;;;;;;7.50;99.90;;;;;;5098970;27;20018;-66
2022/11/28 05:12:03;;;;;;;;;;;7.50;99.90;;;;;;5094835;27;20011;-65
2022/11/28 05:14:29;;;;;;;;;;;7.50;99.90;;;;;;5100863;28;19949;-68
2022/11/28 05:16:54;;;;;;;;;;;7.40;99.90;;;;;;5126860;27;19920;-66
2022/11/28 05:19:20;;;;;;;;;;;7.40;99.90;;;;;;5097589;28;20294;-68
2022/11/28 05:21:45;;;;;;;;;;;7.40;99.90;;;;;;5091291;27;19928;-68
2022/11/28 05:24:10;;;;;;;;;;;7.50;99.90;;;;;;5098674;27;19926;-65
2022/11/28 05:26:37;;;;;;;;;;;7.40;99.90;;;;;;5097642;27;19923;-66
2022/11/28 05:29:02;;;;;;;;;;;7.50;99.90;;;;;;5132627;27;20184;-67
2022/11/28 05:31:28;;;;;;;;;;;7.50;99.90;;;;;;5130197;27;20361;-70
2022/11/28 05:33:54;;;;;;;;;;;7.50;99.90;;;;;;5093333;27;19920;-66
2022/11/28 05:36:20;;;;;;;;;;;7.60;99.90;;;;;;5098381;27;19963;-66
2022/11/28 05:38:46;;;;;;;;;;;7.50;99.90;;;;;;5092697;27;19962;-67
2022/11/28 05:41:19;;;;;;;;;;;7.50;99.90;;;;;;5126890;27;20378;-65
2022/11/28 05:43:44;;;;;;;;;;;7.60;99.90;;;;;;5127562;27;19934;-67
2022/11/28 05:46:10;;;;;;;;;;;7.50;99.90;;;;;;5098518;27;19928;-68
2022/11/28 05:48:35;;;;;;;;;;;7.60;99.90;;;;;;5092224;27;20495;-68
2022/11/28 05:51:02;;;;;;;;;;;7.50;99.90;;;;;;5127225;27;19924;-68
2022/11/28 05:53:28;;;;;;;;;;;7.60;99.90;;;;;;5099686;27;20011;-67
2022/11/28 05:55:53;;;;;;;;;;;7.60;99.90;;;;;;5095254;28;19963;-66
2022/11/28 05:58:19;;;;;;;;;;;7.60;99.90;;;;;;5094093;28;19924;-68
2022/11/28 06:00:44;;;;;;;;;;;7.50;99.90;;;;;;5099457;28;19928;-67
2022/11/28 06:03:10;;;;;;;;;;;7.60;99.90;;;;;;5091379;27;19920;-67
2022/11/28 06:05:38;;;;;;;;;;;7.70;99.90;;;;;;5094765;27;19919;-69
2022/11/28 06:08:03;;;;;;;;;;;7.50;99.90;;;;;;5095705;27;20153;-66
2022/11/28 06:10:29;;;;;;;;;;;7.70;99.90;;;;;;5088507;28;20412;-67
2022/11/28 06:12:54;;;;;;;;;;;7.60;99.90;;;;;;5092708;28;19928;-66
2022/11/28 06:15:20;;;;;;;;;;;7.60;99.90;;;;;;5099171;28;19920;-67
2022/11/28 06:17:45;;;;;;;;;;;7.70;99.90;;;;;;5096457;27;19927;-65
2022/11/28 06:20:11;;;;;;;;;;;7.60;99.90;;;;;;5094874;28;19945;-67
2022/11/28 06:22:36;;;;;;;;;;;7.60;99.90;;;;;;5096106;28;19920;-67
2022/11/28 06:25:02;;;;;;;;;;;7.70;99.90;;;;;;5099817;27;19934;-67
2022/11/28 06:27:27;;;;;;;;;;;7.60;99.90;;;;;;5091752;28;19928;-66
2022/11/28 06:29:53;;;;;;;;;;;7.60;99.90;;;;;;5102347;27;19919;-66
2022/11/28 06:32:18;;;;;;;;;;;7.60;99.90;;;;;;5092007;28;19919;-67
2022/11/28 06:34:44;;;;;;;;;;;7.60;99.90;;;;;;5096454;28;20538;-68
2022/11/28 06:37:09;;;;;;;;;;;7.60;99.90;;;;;;5093288;28;19926;-68
2022/11/28 06:39:35;;;;;;;;;;;7.70;99.90;;;;;;5089137;27;19928;-67
2022/11/28 06:42:01;;;;;;;;;;;7.60;99.90;;;;;;5075429;28;19923;-66
2022/11/28 06:44:26;;;;;;;;;;;7.60;99.90;;;;;;5097374;27;19975;-67
2022/11/28 06:46:53;;;;;;;;;;;7.70;99.90;;;;;;5095635;28;19931;-67
2022/11/28 06:49:19;;;;;;;;;;;7.70;99.90;;;;;;5097052;27;19924;-68
2022/11/28 06:51:45;;;;;;;;;;;7.60;99.90;;;;;;5093510;28;19923;-68
2022/11/28 06:54:10;;;;;;;;;;;7.70;99.90;;;;;;5092396;27;20310;-67
2022/11/28 06:56:36;;;;;;;;;;;7.70;99.90;;;;;;5089363;27;19924;-66
2022/11/28 06:59:01;;;;;;;;;;;7.70;99.90;;;;;;5095948;27;20363;-66
2022/11/28 07:01:28;;;;;;;;;;;7.70;99.90;;;;;;5093687;28;19939;-67
2022/11/28 07:03:54;;;;;;;;;;;7.60;99.90;;;;;;5095837;28;20441;-66
2022/11/28 07:06:20;;;;;;;;;;;7.60;99.90;;;;;;5092877;28;19931;-66
2022/11/28 07:08:46;;;;;;;;;;;7.70;99.90;;;;;;5094113;28;19923;-67
2022/11/28 07:11:16;;;;;;;;;;;7.60;99.90;;;;;;5094813;28;19989;-69
2022/11/28 07:13:44;;;;;;;;;;;7.70;99.90;;;;;;5097514;28;19924;-69
2022/11/28 07:16:14;;;;;;;;;;;7.70;99.90;;;;;;5079354;28;19927;-66
2022/11/28 07:18:40;;;;;;;;;;;7.60;99.90;;;;;;5098138;27;20002;-67
2022/11/28 07:21:06;;;;;;;;;;;7.60;99.90;;;;;;5098160;28;19941;-69
2022/11/28 07:23:31;;;;;;;;;;;7.60;99.90;;;;;;5094716;28;20011;-66
2022/11/28 07:25:58;;;;;;;;;;;7.70;99.90;;;;;;5124519;27;20294;-66
2022/11/28 07:28:24;;;;;;;;;;;7.60;99.90;;;;;;5087703;28;19924;-66
2022/11/28 07:30:56;;;;;;;;;;;7.70;99.90;;;;;;5098857;28;19927;-66
2022/11/28 07:33:22;;;;;;;;;;;7.70;99.90;;;;;;5078389;28;19927;-67
2022/11/28 07:35:47;;;;;;;;;;;7.60;99.90;;;;;;5094262;28;19920;-66
2022/11/28 07:38:13;;;;;;;;;;;7.70;99.90;;;;;;5089745;28;19923;-66
2022/11/28 07:40:38;;;;;;;;;;;7.80;99.90;;;;;;5090169;28;20338;-68
2022/11/28 07:43:04;;;;;;;;;;;7.60;99.90;;;;;;5127262;27;19923;-66
2022/11/28 07:45:29;;;;;;;;;;;7.70;99.90;;;;;;5097056;28;20011;-67
2022/11/28 07:47:55;;;;;;;;;;;7.70;99.90;;;;;;5095876;28;19923;-65
2022/11/28 07:50:20;;;;;;;;;;;7.70;99.90;;;;;;5113499;28;20022;-67
2022/11/28 07:52:48;;;;;;;;;;;7.70;99.90;;;;;;5096403;28;20319;-66
2022/11/28 07:55:14;;;;;;;;;;;7.70;99.90;;;;;;5102824;28;19920;-66
2022/11/28 07:57:39;;;;;;;;;;;7.80;99.90;;;;;;5096010;28;19926;-67
2022/11/28 08:00:05;;;;;;;;;;;7.80;99.90;;;;;;5107491;27;19930;-67
2022/11/28 08:02:31;;;;;;;;;;;7.70;99.90;;;;;;5109752;28;19962;-67
2022/11/28 08:04:57;;;;;;;;;;;7.80;99.90;;;;;;5113672;28;19924;-66
2022/11/28 08:07:23;;;;;;;;;;;7.70;99.90;;;;;;5110565;28;19931;-67
2022/11/28 08:09:48;;;;;;;;;;;7.70;99.90;;;;;;5110111;28;19924;-66
2022/11/28 08:12:14;;;;;;;;;;;7.80;99.90;;;;;;5105372;28;20413;-65
2022/11/28 08:14:39;;;;;;;;;;;7.80;99.90;;;;;;5126455;27;19924;-67
2022/11/28 08:17:05;;;;;;;;;;;7.70;99.90;;;;;;5095475;28;19920;-67
2022/11/28 08:19:30;;;;;;;;;;;7.70;99.90;;;;;;5109577;28;19928;-67
2022/11/28 08:21:56;;;;;;;;;;;7.80;99.90;;;;;;5130036;27;19920;-68
2022/11/28 08:24:21;;;;;;;;;;;7.80;99.90;;;;;;5102579;28;19923;-68
2022/11/28 08:26:47;;;;;;;;;;;7.70;99.90;;;;;;5099393;28;19934;-68
2022/11/28 08:29:12;;;;;;;;;;;7.80;99.90;;;;;;5097307;28;19926;-66
2022/11/28 08:31:38;;;;;;;;;;;7.70;99.90;;;;;;5108396;27;20434;-65
2022/11/28 08:34:05;;;;;;;;;;;7.80;99.90;;;;;;5097033;27;19920;-69
2022/11/28 08:36:31;;;;;;;;;;;7.90;99.90;;;;;;5097136;28;19934;-67
2022/11/28 08:38:59;;;;;;;;;;;7.90;99.90;;;;;;5098718;27;19920;-67
2022/11/28 08:41:25;;;;;;;;;;;7.80;99.90;;;;;;5103567;27;19920;-66
2022/11/28 08:43:50;;;;;;;;;;;7.90;99.90;;;;;;5099622;28;20376;-67
2022/11/28 08:46:18;;;;;;;;;;;7.80;99.90;;;;;;5107412;27;19924;-68
2022/11/28 08:48:45;;;;;;;;;;;8.00;99.90;;;;;;5110245;28;20282;-67
2022/11/28 08:51:13;;;;;;;;;;;7.90;99.90;;;;;;5095796;28;19920;-67
2022/11/28 08:53:39;;;;;;;;;;;7.80;99.90;;;;;;5091821;28;19965;-67
2022/11/28 08:56:04;;;;;;;;;;;7.90;99.90;;;;;;5102107;28;19920;-66
2022/11/28 08:58:30;;;;;;;;;;;7.90;99.90;;;;;;5091198;28;19966;-67
2022/11/28 09:00:55;;;;;;;;;;;7.90;99.90;;;;;;5096092;28;19924;-68
2022/11/28 09:03:21;;;;;;;;;;;8.00;99.90;;;;;;5112235;28;19931;-68
2022/11/28 09:05:46;;;;;;;;;;;8.00;99.90;;;;;;5140261;27;19931;-68
2022/11/28 09:08:12;;;;;;;;;;;8.00;99.90;;;;;;5100519;28;19936;-67
2022/11/28 09:10:39;;;;;;;;;;;8.00;99.90;;;;;;5110858;28;19923;-66
2022/11/28 09:13:05;;;;;;;;;;;8.00;99.90;;;;;;5109635;28;20485;-68
2022/11/28 09:15:31;;;;;;;;;;;8.00;99.90;;;;;;5108596;28;20472;-67
2022/11/28 09:17:57;;;;;;;;;;;8.10;99.90;;;;;;5102455;28;20007;-67
2022/11/28 09:20:22;;;;;;;;;;;8.10;99.90;;;;;;5087044;28;19924;-68
2022/11/28 09:22:48;;;;;;;;;;;8.00;99.90;;;;;;5134456;27;19930;-67
2022/11/28 09:25:14;;;;;;;;;;;8.10;99.90;;;;;;5110045;28;19920;-67
2022/11/28 09:27:40;;;;;;;;;;;8.00;99.90;;;;;;5105437;28;19976;-66
2022/11/28 09:30:06;;;;;;;;;;;8.20;99.90;;;;;;5107249;28;19923;-66
2022/11/28 09:32:32;;;;;;;;;;;8.10;99.90;;;;;;5102605;28;20481;-67
2022/11/28 09:34:57;;;;;;;;;;;8.20;99.90;;;;;;5127361;27;20150;-67
2022/11/28 09:37:23;;;;;;;;;;;8.20;99.90;;;;;;5096433;28;19927;-67
2022/11/28 09:39:49;;;;;;;;;;;8.20;99.90;;;;;;5100484;28;20008;-68
2022/11/28 09:42:42;;;;;;;;;;;8.20;99.90;;;;;;5110142;28;19920;-67
2022/11/28 09:45:14;;;;;;;;;;;8.30;99.90;;;;;;5094360;28;20299;-67
2022/11/28 09:47:42;;;;;;;;;;;8.30;99.90;;;;;;5136204;27;19930;-67
2022/11/28 09:50:15;;;;;;;;;;;8.40;99.90;;;;;;5090649;28;20182;-68
2022/11/28 09:52:53;;;;;;;;;;;8.20;99.90;;;;;;5099288;28;19919;-67
2022/11/28 09:55:37;;;;;;;;;;;8.30;99.90;;;;;;5107770;28;19927;-67
2022/11/28 09:58:14;;;;;;;;;;;8.30;99.90;;;;;;5101806;28;19927;-67
2022/11/28 10:00:45;;;;;;;;;;;8.30;99.90;;;;;;5090828;28;19963;-66
2022/11/28 10:03:16;;;;;;;;;;;8.40;99.90;;;;;;5139616;27;19919;-67
2022/11/28 10:06:01;;;;;;;;;;;8.40;99.90;;;;;;5098121;28;20211;-67
2022/11/28 10:08:29;;;;;;;;;;;8.40;99.90;;;;;;5096713;28;19969;-67
2022/11/28 10:10:55;;;;;;;;;;;8.40;99.90;;;;;;5091636;28;20497;-67
2022/11/28 10:13:28;;;;;;;;;;;8.40;99.90;;;;;;5100050;28;19931;-67
2022/11/28 10:16:00;;;;;;;;;;;8.60;99.90;;;;;;5127324;27;19926;-68
2022/11/28 10:18:32;;;;;;;;;;;8.50;99.90;;;;;;5136910;27;20340;-67
2022/11/28 10:20:59;;;;;;;;;;;8.60;99.90;;;;;;5104804;28;19973;-67
2022/11/28 10:23:37;;;;;;;;;;;8.60;99.90;;;;;;5128714;27;19926;-67
2022/11/28 10:26:09;;;;;;;;;;;8.60;99.90;;;;;;5107039;28;19993;-68
2022/11/28 10:28:37;;;;;;;;;;;8.60;99.90;;;;;;5106985;28;19926;-67
2022/11/28 10:31:15;;;;;;;;;;;8.60;99.90;;;;;;5099230;28;19969;-67
2022/11/28 10:33:44;;;;;;;;;;;8.60;99.90;;;;;;5132492;27;20364;-67
2022/11/28 10:36:25;;;;;;;;;;;8.60;99.90;;;;;;5103434;27;19920;-67
2022/11/28 10:38:51;;;;;;;;;;;8.60;99.90;;;;;;5105827;27;20271;-67
2022/11/28 10:41:24;;;;;;;;;;;8.60;99.90;;;;;;5106056;27;20284;-68
2022/11/28 10:43:53;;;;;;;;;;;8.60;99.90;;;;;;5098593;27;19935;-68
2022/11/28 10:46:41;;;;;;;;;;;8.60;99.90;;;;;;5105348;27;20072;-67
2022/11/28 10:49:13;;;;;;;;;;;8.60;99.90;;;;;;5110124;28;20306;-68
2022/11/28 10:51:57;;;;;;;;;;;8.70;99.90;;;;;;5094141;28;19970;-67
2022/11/28 10:54:41;;;;;;;;;;;8.70;99.90;;;;;;5101461;28;19924;-67
2022/11/28 10:57:16;;;;;;;;;;;8.80;99.90;;;;;;5093470;28;19952;-67
2022/11/28 11:00:00;;;;;;;;;;;8.80;99.90;;;;;;5090727;28;20389;-67
2022/11/28 11:02:41;;;;;;;;;;;8.80;99.90;;;;;;5089077;28;20413;-66
2022/11/28 11:05:11;;;;;;;;;;;8.80;99.90;;;;;;5090520;28;19920;-67
2022/11/28 11:07:36;;;;;;;;;;;8.70;99.90;;;;;;5126275;27;19980;-67
2022/11/28 11:10:16;;;;;;;;;;;8.80;99.90;;;;;;5106409;28;19924;-68
2022/11/28 11:12:42;;;;;;;;;;;8.80;99.90;;;;;;5102770;28;19924;-67
2022/11/28 11:15:36;;;;;;;;;;;8.80;99.90;;;;;;5106685;28;19920;-67
2022/11/28 11:18:04;;;;;;;;;;;8.70;99.90;;;;;;5077466;28;20290;-67
2022/11/28 11:20:32;;;;;;;;;;;8.70;99.90;;;;;;5110381;28;20455;-67
2022/11/28 11:23:09;;;;;;;;;;;8.70;99.90;;;;;;5090825;28;19920;-67
2022/11/28 11:25:35;;;;;;;;;;;8.70;99.90;;;;;;5134468;27;20366;-67
2022/11/28 11:28:02;;;;;;;;;;;8.70;99.90;;;;;;5106306;28;19934;-67
2022/11/28 11:30:33;;;;;;;;;;;8.70;99.90;;;;;;5094062;28;20008;-68
2022/11/28 11:32:59;;;;;;;;;;;8.80;99.90;;;;;;5140867;27;20022;-67
2022/11/28 11:35:26;;;;;;;;;;;8.80;99.90;;;;;;5129828;28;19919;-66
2022/11/28 11:37:52;;;;;;;;;;;8.80;99.90;;;;;;5117381;28;19973;-68
2022/11/28 11:40:17;;;;;;;;;;;8.90;99.90;;;;;;5109048;28;20035;-67
2022/11/28 11:42:50;;;;;;;;;;;8.80;99.90;;;;;;5091475;28;19927;-65
2022/11/28 11:45:24;;;;;;;;;;;8.90;99.90;;;;;;5090043;28;20383;-67
2022/11/28 11:47:49;;;;;;;;;;;8.80;99.90;;;;;;5098492;28;20306;-67
2022/11/28 11:50:16;;;;;;;;;;;8.70;99.90;;;;;;5109657;28;19920;-67
2022/11/28 11:52:42;;;;;;;;;;;8.80;99.90;;;;;;5089505;28;20018;-68
2022/11/28 11:55:13;;;;;;;;;;;8.80;99.90;;;;;;5089493;28;20062;-68
2022/11/28 11:57:43;;;;;;;;;;;8.80;99.90;;;;;;5105714;28;19931;-67
2022/11/28 12:00:08;;;;;;;;;;;8.80;99.90;;;;;;5123923;28;20026;-68
2022/11/28 12:02:36;;;;;;;;;;;8.90;99.90;;;;;;5092029;28;20077;-67
2022/11/28 12:05:22;;;;;;;;;;;8.80;99.90;;;;;;5089296;28;20011;-69
2022/11/28 12:07:48;;;;;;;;;;;8.90;99.90;;;;;;5088230;28;20485;-68
2022/11/28 12:10:16;;;;;;;;;;;8.80;99.90;;;;;;5071497;28;20010;-67
2022/11/28 12:12:42;;;;;;;;;;;8.80;99.90;;;;;;5071235;28;20427;-67
2022/11/28 12:15:28;;;;;;;;;;;9.00;99.90;;;;;;5092483;28;19989;-67
2022/11/28 12:18:08;;;;;;;;;;;8.80;99.90;;;;;;5063314;28;19926;-68
2022/11/28 12:20:40;;;;;;;;;;;8.80;99.90;;;;;;5090567;28;20296;-68
2022/11/28 12:23:08;;;;;;;;;;;8.80;99.90;;;;;;5081483;28;20106;-67
2022/11/28 12:25:53;;;;;;;;;;;8.80;99.90;;;;;;5075576;28;20386;-68
2022/11/28 12:28:18;;;;;;;;;;;8.80;99.90;;;;;;5069454;28;19923;-68
2022/11/28 12:30:50;;;;;;;;;;;8.90;99.90;;;;;;5089518;28;19920;-68
2022/11/28 12:33:37;;;;;;;;;;;8.80;99.90;;;;;;5086740;28;19939;-68
2022/11/28 12:36:06;;;;;;;;;;;8.80;99.90;;;;;;5079293;28;20389;-67
2022/11/28 12:38:50;;;;;;;;;;;8.80;99.90;;;;;;5114460;28;19931;-68
2022/11/28 12:41:35;;;;;;;;;;;8.90;99.90;;;;;;5070940;28;20350;-68
2022/11/28 12:44:12;;;;;;;;;;;9.00;99.90;;;;;;5070787;28;19942;-67
2022/11/28 12:46:47;;;;;;;;;;;8.90;99.90;;;;;;5083687;28;20048;-69
2022/11/28 12:49:16;;;;;;;;;;;8.80;99.90;;;;;;5092997;28;19920;-68
2022/11/28 12:51:42;;;;;;;;;;;9.00;99.90;;;;;;5084704;28;20302;-68
2022/11/28 12:54:26;;;;;;;;;;;8.80;99.90;;;;;;5126766;27;19923;-68
2022/11/28 12:56:57;;;;;;;;;;;8.80;99.90;;;;;;5086982;28;19978;-68
2022/11/28 12:59:39;;;;;;;;;;;8.90;99.90;;;;;;5094758;28;19924;-68
2022/11/28 13:02:10;;;;;;;;;;;9.00;99.90;;;;;;5087617;28;19959;-68
2022/11/28 13:04:43;;;;;;;;;;;8.90;99.90;;;;;;5092828;28;19942;-68
2022/11/28 13:07:08;;;;;;;;;;;9.00;99.90;;;;;;5092156;28;20416;-69
2022/11/28 13:09:42;;;;;;;;;;;8.90;99.90;;;;;;5102017;28;19959;-67
2022/11/28 13:12:26;;;;;;;;;;;9.00;99.90;;;;;;5107244;28;20006;-68
2022/11/28 13:14:51;;;;;;;;;;;9.10;99.90;;;;;;5111792;28;19930;-68
2022/11/28 13:17:21;;;;;;;;;;;8.90;99.90;;;;;;5100991;28;20298;-67
2022/11/28 13:19:56;;;;;;;;;;;9.00;99.90;;;;;;5108087;28;19975;-68
2022/11/28 13:22:28;;;;;;;;;;;8.90;99.90;;;;;;5102558;28;19924;-68
2022/11/28 13:25:00;;;;;;;;;;;8.90;99.90;;;;;;5108182;28;19920;-67
2022/11/28 13:27:35;;;;;;;;;;;9.00;99.90;;;;;;5141819;27;20019;-68
2022/11/28 13:30:16;;;;;;;;;;;9.00;99.90;;;;;;5111768;28;19981;-69
2022/11/28 13:32:50;;;;;;;;;;;8.90;99.90;;;;;;5109102;27;20065;-69
2022/11/28 13:35:17;;;;;;;;;;;9.00;99.90;;;;;;5111711;28;19920;-68
2022/11/28 13:37:47;;;;;;;;;;;9.00;99.90;;;;;;5105629;28;19924;-69
2022/11/28 13:40:16;;;;;;;;;;;8.90;99.90;;;;;;5103593;28;19931;-68
2022/11/28 13:43:00;;;;;;;;;;;8.90;99.90;;;;;;5106258;28;19975;-69
2022/11/28 13:45:31;;;;;;;;;;;9.00;99.90;;;;;;5087776;28;19998;-68
2022/11/28 13:47:56;;;;;;;;;;;8.90;99.90;;;;;;5108069;28;19924;-68
2022/11/28 13:50:22;;;;;;;;;;;9.00;99.90;;;;;;5110856;28;20415;-69
2022/11/28 13:53:20;;;;;;;;;;;8.80;99.90;;;;;;5101829;28;19986;-68
2022/11/28 13:55:47;;;;;;;;;;;8.80;99.90;;;;;;5051764;28;19919;-68
2022/11/28 13:58:15;;;;;;;;;;;8.80;99.90;;;;;;5141310;27;20453;-68
2022/11/28 14:00:41;;;;;;;;;;;9.00;99.90;;;;;;5091100;28;20385;-68
2022/11/28 14:03:17;;;;;;;;;;;8.90;99.90;;;;;;5107149;28;19920;-68
2022/11/28 14:05:43;;;;;;;;;;;8.90;99.90;;;;;;5101277;28;19924;-68
2022/11/28 14:08:24;;;;;;;;;;;8.90;99.90;;;;;;5121787;27;19936;-68
2022/11/28 14:11:17;;;;;;;;;;;8.90;99.90;;;;;;5109556;28;20366;-68
2022/11/28 14:13:47;;;;;;;;;;;9.00;99.90;;;;;;5106643;28;19927;-69
2022/11/28 14:16:19;;;;;;;;;;;9.00;99.90;;;;;;5101183;28;19923;-69
2022/11/28 14:19:05;;;;;;;;;;;8.90;99.90;;;;;;5138554;27;19923;-68
2022/11/28 14:21:37;;;;;;;;;;;8.90;99.90;;;;;;5092214;28;20352;-68
2022/11/28 14:24:09;;;;;;;;;;;8.90;99.90;;;;;;5107687;28;19926;-68
2022/11/28 14:26:37;;;;;;;;;;;8.90;99.90;;;;;;5110033;28;19932;-69
2022/11/28 14:29:05;;;;;;;;;;;9.00;99.90;;;;;;5108284;28;19920;-68
2022/11/28 14:31:30;;;;;;;;;;;8.90;99.90;;;;;;5097451;28;19927;-68
2022/11/28 14:33:57;;;;;;;;;;;9.00;99.90;;;;;;5110081;27;20285;-68
2022/11/28 14:36:23;;;;;;;;;;;8.90;99.90;;;;;;5104648;28;19974;-68
2022/11/28 14:39:03;;;;;;;;;;;8.90;99.90;;;;;;5099633;28;19920;-67
2022/11/28 14:41:28;;;;;;;;;;;9.00;99.90;;;;;;5108323;28;19919;-68
2022/11/28 14:44:14;;;;;;;;;;;8.90;99.90;;;;;;5099260;28;19926;-68
2022/11/28 14:46:59;;;;;;;;;;;9.00;99.90;;;;;;5108052;28;19953;-68